RJTT/HND METAR and TAF weather

Enter ICAO airport designator
Station Type Date Time Source
RJTT METAR 2022/01/26 14:30 UTC NOAA

RJTT 261430Z 03002KT 9999 FEW015 07/04 Q1014 NOSIG


Station Type Date Time Source
RJTT Decoded METAR 2022/01/26 14:30 UTC NOAA

Tokyo International Airport, Japan (RJTT) 35-33N 139-47E 8M
Jan 26, 2022 - 09:30 AM EST / 2022.01.26 1430 UTC
Wind: from the NNE (030 degrees) at 2 MPH (2 KT):0
Visibility: greater than 7 mile(s):0
Sky conditions: mostly clear
Temperature: 44 F (7 C)
Dew Point: 39 F (4 C)
Relative Humidity: 81%
Pressure (altimeter): 29.94 in. Hg (1014 hPa)
ob: RJTT 261430Z 03002KT 9999 FEW015 07/04 Q1014 NOSIG
cycle: 14

Station Type Date Time Source
RJTT TAF 2022/01/26 12:30 UTC NOAA

TAF RJTT 261106Z 2612/2718 35008KT 9999 FEW030
BECMG 2709/2712 35018KT

Example: see airport list